createdAt,value
2018-04-18T00:00:22.580Z,9.87
2018-04-18T00:02:50.957Z,10.10
2018-04-18T00:05:19.310Z,10.00
2018-04-18T00:07:47.654Z,10.53
2018-04-18T00:10:16.005Z,10.03
2018-04-18T00:12:44.449Z,10.53
2018-04-18T00:15:12.852Z,11.33
2018-04-18T00:17:41.234Z,10.77
2018-04-18T00:20:09.622Z,10.73
2018-04-18T00:22:37.997Z,10.97
2018-04-18T00:25:06.373Z,10.97
2018-04-18T00:27:34.758Z,11.40
2018-04-18T00:30:03.127Z,11.60
2018-04-18T00:32:31.515Z,11.70
2018-04-18T00:34:59.897Z,11.53
2018-04-18T00:37:28.403Z,11.90
2018-04-18T00:39:56.807Z,11.90
2018-04-18T00:42:25.243Z,12.13
2018-04-18T00:44:53.710Z,11.80
2018-04-18T00:47:22.056Z,12.63
2018-04-18T00:49:51.187Z,12.17
2018-04-18T00:52:19.620Z,12.40
2018-04-18T00:54:47.984Z,12.97
2018-04-18T00:57:16.551Z,13.17
2018-04-18T00:59:44.904Z,12.03
2018-04-18T01:02:13.289Z,13.10
2018-04-18T01:04:41.704Z,13.40
2018-04-18T01:07:10.073Z,12.57
2018-04-18T01:09:38.436Z,12.33
2018-04-18T01:12:06.798Z,12.20
2018-04-18T01:14:35.153Z,12.47
2018-04-18T01:17:03.516Z,11.50
2018-04-18T01:19:31.885Z,11.87
2018-04-18T01:22:00.235Z,12.67
2018-04-18T01:24:28.697Z,12.33
2018-04-18T01:26:57.056Z,12.43
2018-04-18T01:29:25.427Z,11.97
2018-04-18T01:31:53.859Z,12.90
2018-04-18T01:34:22.242Z,12.60
2018-04-18T01:36:50.614Z,13.10
2018-04-18T01:39:18.963Z,12.90
2018-04-18T01:41:47.341Z,11.80
2018-04-18T01:44:15.694Z,13.60
2018-04-18T01:46:45.006Z,13.00
2018-04-18T01:49:21.544Z,12.90
2018-04-18T01:51:49.986Z,13.67
2018-04-18T01:54:18.340Z,12.80
2018-04-18T01:56:46.841Z,13.87
2018-04-18T01:59:15.369Z,14.20
2018-04-18T02:01:43.719Z,13.00
2018-04-18T02:04:12.202Z,13.83
2018-04-18T02:06:40.570Z,13.73
2018-04-18T02:09:08.927Z,12.30
2018-04-18T02:11:37.300Z,13.67
2018-04-18T02:14:06.422Z,13.13
2018-04-18T02:16:34.775Z,13.10
2018-04-18T02:19:03.168Z,13.20
2018-04-18T02:21:31.632Z,12.90
2018-04-18T02:24:00.763Z,13.60
2018-04-18T02:26:29.118Z,13.47
2018-04-18T02:28:57.483Z,13.17
2018-04-18T02:31:25.854Z,12.97
2018-04-18T02:33:54.268Z,13.73
2018-04-18T02:36:22.750Z,13.20
2018-04-18T02:38:51.107Z,13.17
2018-04-18T02:41:20.289Z,13.23
2018-04-18T02:43:48.738Z,13.20
2018-04-18T02:46:17.173Z,13.60
2018-04-18T02:48:45.571Z,13.60
2018-04-18T02:51:13.924Z,13.80
2018-04-18T02:53:43.075Z,13.57
2018-04-18T02:56:11.431Z,14.70
2018-04-18T02:58:39.828Z,13.90
2018-04-18T03:01:09.003Z,13.30
2018-04-18T03:03:37.434Z,13.57
2018-04-18T03:06:05.838Z,13.13
2018-04-18T03:08:34.185Z,14.57
2018-04-18T03:11:02.537Z,13.13
2018-04-18T03:13:31.058Z,13.37
2018-04-18T03:15:59.520Z,13.73
2018-04-18T03:18:29.422Z,13.57
2018-04-18T03:20:57.839Z,13.67
2018-04-18T03:23:27.044Z,14.30
2018-04-18T03:25:56.368Z,13.27
2018-04-18T03:28:25.491Z,14.07
2018-04-18T03:30:53.947Z,12.77
2018-04-18T03:33:22.516Z,14.37
2018-04-18T03:35:51.647Z,14.77
2018-04-18T03:38:19.994Z,13.67
2018-04-18T03:40:49.125Z,14.27
2018-04-18T03:43:17.470Z,14.40
2018-04-18T03:45:46.591Z,13.73
2018-04-18T03:48:14.996Z,14.20
2018-04-18T03:50:43.361Z,14.67
2018-04-18T03:53:11.769Z,14.40
2018-04-18T03:55:40.126Z,13.60
2018-04-18T03:58:08.491Z,14.33
2018-04-18T04:00:36.850Z,13.77
2018-04-18T04:03:05.399Z,13.63
2018-04-18T04:05:33.911Z,13.70
2018-04-18T04:08:02.262Z,13.47
2018-04-18T04:10:30.723Z,14.07
2018-04-18T04:12:59.122Z,14.60
2018-04-18T04:15:27.494Z,14.83
2018-04-18T04:18:07.719Z,14.80
2018-04-18T04:20:48.034Z,14.33
2018-04-18T04:23:29.114Z,14.40
2018-04-18T04:25:58.256Z,14.63
2018-04-18T04:28:26.782Z,13.87
2018-04-18T04:30:55.227Z,14.97
2018-04-18T04:33:23.578Z,14.30
2018-04-18T04:35:52.152Z,14.40
2018-04-18T04:38:21.342Z,14.63
2018-04-18T04:40:49.859Z,14.93
2018-04-18T04:43:18.272Z,14.57
2018-04-18T04:45:46.614Z,15.00
2018-04-18T04:48:15.004Z,15.27
2018-04-18T04:50:43.399Z,15.50
2018-04-18T04:53:11.869Z,15.40
2018-04-18T04:55:40.233Z,14.97
2018-04-18T04:58:08.600Z,15.53
2018-04-18T05:00:37.000Z,15.03
2018-04-18T05:03:05.380Z,15.33
2018-04-18T05:05:33.733Z,15.13
2018-04-18T05:08:02.108Z,15.53
2018-04-18T05:10:30.540Z,15.13
2018-04-18T05:12:58.953Z,15.43
2018-04-18T05:15:28.071Z,15.03
2018-04-18T05:17:56.467Z,15.43
2018-04-18T05:20:24.821Z,14.10
2018-04-18T05:22:53.956Z,16.17
2018-04-18T05:25:22.450Z,14.93
2018-04-18T05:27:50.863Z,15.73
2018-04-18T05:30:20.016Z,15.93
2018-04-18T05:32:49.229Z,16.53
2018-04-18T05:35:17.591Z,16.10
2018-04-18T05:37:46.140Z,16.37
2018-04-18T05:40:15.388Z,14.40
2018-04-18T05:42:45.583Z,16.87
2018-04-18T05:45:14.012Z,15.83
2018-04-18T05:47:42.463Z,16.50
2018-04-18T05:50:10.876Z,15.53
2018-04-18T05:52:39.310Z,16.93
2018-04-18T05:55:07.811Z,17.83
2018-04-18T05:57:36.204Z,15.97
2018-04-18T06:00:04.553Z,15.47
2018-04-18T06:02:32.925Z,16.43
2018-04-18T06:05:01.342Z,16.97
2018-04-18T06:10:04.507Z,15.77
2018-04-18T06:12:33.101Z,17.10
2018-04-18T06:15:01.742Z,15.70
2018-04-18T06:17:30.238Z,16.33
2018-04-18T06:20:01.065Z,17.00
2018-04-18T06:22:29.735Z,16.43
2018-04-18T06:24:58.218Z,16.33
2018-04-18T06:27:26.903Z,16.17
2018-04-18T06:29:55.255Z,16.47
2018-04-18T06:32:24.274Z,15.90
2018-04-18T06:34:52.739Z,16.93
2018-04-18T06:37:21.088Z,17.23
2018-04-18T06:39:49.464Z,19.17
2018-04-18T06:42:18.019Z,17.23
2018-04-18T06:44:46.451Z,16.50
2018-04-18T06:47:14.808Z,16.37
2018-04-18T06:49:43.208Z,16.13
2018-04-18T06:52:11.558Z,15.60
2018-04-18T06:54:39.919Z,15.10
2018-04-18T06:57:08.503Z,14.80
2018-04-18T06:59:37.653Z,15.10
2018-04-18T07:02:05.990Z,15.67
2018-04-18T07:04:34.405Z,14.97
2018-04-18T07:07:02.749Z,14.00
2018-04-18T07:09:31.175Z,15.20
2018-04-18T07:11:59.596Z,15.47
2018-04-18T07:14:28.113Z,14.93
2018-04-18T07:16:56.514Z,14.37
2018-04-18T07:19:24.889Z,14.17
2018-04-18T07:21:53.241Z,14.70
2018-04-18T07:24:21.723Z,14.37
2018-04-18T07:26:50.827Z,14.73
2018-04-18T07:29:19.225Z,13.37
2018-04-18T07:31:47.586Z,12.83
2018-04-18T07:34:16.101Z,13.23
2018-04-18T07:36:45.195Z,13.83
2018-04-18T07:39:13.609Z,13.10
2018-04-18T07:41:42.739Z,12.87
2018-04-18T07:44:11.146Z,13.50
2018-04-18T07:46:39.550Z,13.77
2018-04-18T07:49:07.879Z,13.10
2018-04-18T07:51:37.040Z,12.80
2018-04-18T07:54:05.606Z,13.50
2018-04-18T07:56:34.456Z,13.80
2018-04-18T07:59:02.858Z,13.87
2018-04-18T08:01:31.434Z,12.80
2018-04-18T08:03:59.795Z,12.30
2018-04-18T08:06:28.796Z,14.00
2018-04-18T08:08:57.163Z,12.83
2018-04-18T08:11:25.639Z,14.00
2018-04-18T08:13:54.218Z,14.53
2018-04-18T08:16:22.573Z,14.03
2018-04-18T08:18:51.694Z,15.17
2018-04-18T08:21:20.052Z,15.20
2018-04-18T08:23:50.067Z,15.07
2018-04-18T08:26:19.191Z,14.55
2018-04-18T08:28:47.596Z,14.15
2018-04-18T08:31:16.044Z,16.80
2018-04-18T08:33:45.214Z,14.93
2018-04-18T08:36:13.655Z,18.00
2018-04-18T08:38:42.091Z,15.93
2018-04-18T08:41:10.615Z,17.17
2018-04-18T08:43:38.982Z,15.93
2018-04-18T08:46:07.321Z,16.20
2018-04-18T08:48:36.439Z,15.07
2018-04-18T08:51:04.795Z,16.23
2018-04-18T08:53:33.918Z,14.87
2018-04-18T08:56:02.483Z,17.08
2018-04-18T08:58:31.620Z,17.60
2018-04-18T09:01:00.217Z,16.55
2018-04-18T09:03:28.789Z,16.98
2018-04-18T09:05:57.164Z,17.77
2018-04-18T09:08:25.558Z,18.65
2018-04-18T09:10:53.947Z,19.83
2018-04-18T09:13:22.625Z,19.48
2018-04-18T09:15:51.226Z,18.67
2018-04-18T09:18:19.530Z,18.30
2018-04-18T09:20:48.687Z,18.42
2018-04-18T09:23:17.030Z,18.50
2018-04-18T09:25:45.441Z,18.77
2018-04-18T09:28:13.907Z,19.65
2018-04-18T09:30:42.290Z,21.10
2018-04-18T09:33:10.687Z,18.67
2018-04-18T09:35:39.050Z,19.92
2018-04-18T09:38:07.438Z,21.77
2018-04-18T09:40:35.870Z,20.70
2018-04-18T09:43:04.991Z,21.05
2018-04-18T09:45:33.362Z,20.48
2018-04-18T09:48:03.265Z,20.73
2018-04-18T09:50:32.368Z,21.87
2018-04-18T09:53:00.822Z,20.83
2018-04-18T09:55:29.268Z,23.12
2018-04-18T09:57:57.663Z,23.12
2018-04-18T10:00:31.797Z,22.20
2018-04-18T10:03:05.180Z,20.80
2018-04-18T10:05:33.647Z,21.67
2018-04-18T10:08:02.060Z,20.45
2018-04-18T10:10:30.413Z,22.45
2018-04-18T10:12:58.983Z,23.52
2018-04-18T10:15:27.359Z,22.92
2018-04-18T10:17:56.290Z,21.80
2018-04-18T10:20:24.748Z,20.30
2018-04-18T10:22:53.142Z,20.25
2018-04-18T10:25:21.506Z,19.30
2018-04-18T10:27:49.979Z,20.20
2018-04-18T10:30:18.341Z,19.00
2018-04-18T10:32:46.890Z,19.23
2018-04-18T10:35:15.239Z,18.52
2018-04-18T10:37:43.608Z,19.17
2018-04-18T10:40:12.065Z,19.75
2018-04-18T10:42:40.429Z,19.30
2018-04-18T10:45:08.766Z,19.37
2018-04-18T10:47:37.627Z,17.37
2018-04-18T10:50:06.105Z,19.73
2018-04-18T10:52:34.986Z,16.15
2018-04-18T10:55:03.344Z,14.70
2018-04-18T10:57:31.744Z,16.67
2018-04-18T11:00:00.967Z,19.50
2018-04-18T11:02:29.403Z,19.45
2018-04-18T11:04:58.035Z,18.48
2018-04-18T11:07:26.430Z,19.10
2018-04-18T11:09:54.878Z,19.90
2018-04-18T11:12:23.264Z,19.67
2018-04-18T11:14:51.611Z,21.55
2018-04-18T11:17:19.989Z,19.95
2018-04-18T11:19:48.404Z,19.62
2018-04-18T11:22:16.848Z,19.30
2018-04-18T11:24:46.872Z,20.40
2018-04-18T11:27:15.244Z,20.08
2018-04-18T11:29:43.598Z,19.45
2018-04-18T11:32:12.023Z,17.60
2018-04-18T11:34:40.387Z,18.12
2018-04-18T11:37:08.799Z,20.75
2018-04-18T11:39:37.395Z,22.00
2018-04-18T11:42:05.722Z,20.27
2018-04-18T11:44:34.100Z,20.23
2018-04-18T11:47:03.242Z,23.42
2018-04-18T11:49:31.614Z,18.20
2018-04-18T11:52:00.032Z,17.70
2018-04-18T11:54:28.374Z,18.00
2018-04-18T11:56:56.732Z,16.15
2018-04-18T11:59:25.251Z,17.12
2018-04-18T12:01:53.716Z,16.35
2018-04-18T12:04:22.097Z,16.35
2018-04-18T12:06:50.455Z,15.68
2018-04-18T12:09:18.812Z,15.15
2018-04-18T12:11:48.049Z,14.80
2018-04-18T12:14:16.425Z,13.93
2018-04-18T12:16:45.019Z,14.02
2018-04-18T12:19:13.364Z,12.77
2018-04-18T12:21:41.848Z,13.82
2018-04-18T12:24:10.279Z,12.35
2018-04-18T12:26:38.653Z,13.05
2018-04-18T12:29:07.053Z,12.55
2018-04-18T12:31:35.468Z,13.70
2018-04-18T12:34:04.574Z,12.37
2018-04-18T12:36:32.937Z,13.55
2018-04-18T12:39:02.156Z,11.95
2018-04-18T12:41:30.563Z,13.48
2018-04-18T12:43:58.919Z,13.02
2018-04-18T12:46:27.294Z,13.30
2018-04-18T12:48:55.826Z,15.40
2018-04-18T12:51:24.280Z,13.60
2018-04-18T12:53:53.559Z,13.30
2018-04-18T12:56:21.912Z,13.38
2018-04-18T12:58:51.123Z,12.88
2018-04-18T13:01:19.481Z,13.55
2018-04-18T13:03:48.746Z,16.08
2018-04-18T13:06:17.104Z,16.50
2018-04-18T13:08:45.559Z,15.48
2018-04-18T13:11:13.953Z,13.18
2018-04-18T13:13:42.391Z,15.02
2018-04-18T13:16:10.747Z,16.20
2018-04-18T13:18:39.092Z,16.77
2018-04-18T13:21:07.582Z,14.68
2018-04-18T13:23:35.976Z,13.62
2018-04-18T13:26:04.355Z,15.40
2018-04-18T13:28:32.836Z,14.93
2018-04-18T13:31:01.252Z,15.63
2018-04-18T13:33:29.696Z,15.02
2018-04-18T13:35:58.078Z,15.57
2018-04-18T13:38:26.442Z,11.75
2018-04-18T13:40:54.798Z,13.45
2018-04-18T13:43:23.349Z,16.50
2018-04-18T13:45:51.700Z,14.25
2018-04-18T13:48:20.055Z,15.07
2018-04-18T13:50:48.415Z,16.60
2018-04-18T13:53:16.830Z,14.18
2018-04-18T13:55:45.219Z,15.05
2018-04-18T13:58:13.590Z,12.77
2018-04-18T14:00:42.054Z,14.52
2018-04-18T14:03:10.420Z,14.90
2018-04-18T14:05:38.838Z,16.90
2018-04-18T14:08:07.301Z,15.57
2018-04-18T14:10:35.663Z,14.85
2018-04-18T14:13:04.042Z,15.82
2018-04-18T14:15:32.402Z,15.90
2018-04-18T14:18:01.636Z,16.55
2018-04-18T14:20:29.987Z,15.23
2018-04-18T14:22:59.267Z,15.48
2018-04-18T14:25:28.467Z,15.40
2018-04-18T14:27:57.102Z,14.75
2018-04-18T14:30:25.467Z,13.50
2018-04-18T14:32:53.849Z,13.32
2018-04-18T14:35:22.239Z,14.38
2018-04-18T14:37:50.726Z,14.77
2018-04-18T14:40:19.093Z,13.32
2018-04-18T14:42:47.458Z,15.48
2018-04-18T14:45:15.860Z,16.85
2018-04-18T14:47:45.078Z,15.40
2018-04-18T14:50:13.443Z,17.02
2018-04-18T14:52:41.821Z,13.88
2018-04-18T14:55:10.216Z,17.35
2018-04-18T14:57:38.560Z,15.15
2018-04-18T15:00:07.016Z,13.50
2018-04-18T15:02:36.150Z,14.82
2018-04-18T15:05:04.532Z,13.73
2018-04-18T15:07:32.940Z,16.62
2018-04-18T15:10:01.768Z,16.50
2018-04-18T15:12:30.192Z,17.42
2018-04-18T15:14:58.727Z,16.17
2018-04-18T15:17:27.871Z,17.58
2018-04-18T15:19:57.257Z,16.05
2018-04-18T15:22:26.368Z,14.93
2018-04-18T15:24:54.749Z,16.77
2018-04-18T15:27:23.130Z,17.27
2018-04-18T15:29:51.549Z,15.50
2018-04-18T15:32:19.983Z,15.50
2018-04-18T15:34:48.372Z,14.20
2018-04-18T15:37:16.719Z,16.52
2018-04-18T15:39:45.092Z,14.63
2018-04-18T15:42:13.548Z,14.30
2018-04-18T15:44:42.117Z,17.25
2018-04-18T15:47:10.582Z,14.85
2018-04-18T15:49:39.005Z,15.32
2018-04-18T15:52:07.816Z,15.85
2018-04-18T15:54:36.217Z,12.95
2018-04-18T15:57:04.618Z,14.20
2018-04-18T15:59:33.448Z,15.93
2018-04-18T16:02:01.815Z,13.50
2018-04-18T16:04:30.955Z,17.80
2018-04-18T16:06:59.339Z,15.27
2018-04-18T16:09:27.707Z,13.85
2018-04-18T16:11:56.159Z,14.40
2018-04-18T16:14:24.670Z,14.65
2018-04-18T16:16:53.129Z,12.63
2018-04-18T16:19:22.286Z,13.50
2018-04-18T16:21:50.779Z,13.07
2018-04-18T16:24:19.141Z,13.30
2018-04-18T16:26:47.537Z,12.35
2018-04-18T16:29:27.820Z,13.57
2018-04-18T16:31:56.980Z,13.05
2018-04-18T16:34:25.454Z,16.05
2018-04-18T16:36:53.850Z,14.90
2018-04-18T16:39:22.227Z,15.75
2018-04-18T16:41:50.589Z,11.98
2018-04-18T16:44:18.995Z,13.93
2018-04-18T16:46:47.331Z,17.23
2018-04-18T16:49:15.793Z,15.52
2018-04-18T16:51:44.228Z,16.98
2018-04-18T16:54:13.706Z,15.80
2018-04-18T16:56:42.101Z,16.52
2018-04-18T16:59:10.826Z,15.73
2018-04-18T17:01:39.216Z,17.17
2018-04-18T17:04:07.551Z,16.52
2018-04-18T17:06:36.048Z,18.73
2018-04-18T17:09:04.499Z,16.00
2018-04-18T17:11:32.885Z,18.10
2018-04-18T17:14:01.247Z,16.80
2018-04-18T17:16:29.692Z,18.58
2018-04-18T17:18:58.046Z,20.77
2018-04-18T17:21:26.431Z,18.20
2018-04-18T17:23:54.908Z,20.33
2018-04-18T17:26:23.270Z,21.40
2018-04-18T17:28:51.679Z,20.40
2018-04-18T17:31:20.140Z,20.08
2018-04-18T17:33:48.495Z,19.55
2018-04-18T17:36:16.867Z,18.37
2018-04-18T17:38:45.278Z,18.20
2018-04-18T17:41:13.887Z,19.10
2018-04-18T17:43:42.327Z,18.45
2018-04-18T17:46:10.675Z,19.12
2018-04-18T17:48:39.066Z,20.05
2018-04-18T17:51:08.223Z,17.83
2018-04-18T17:53:37.401Z,17.30
2018-04-18T17:56:05.878Z,16.45
2018-04-18T17:58:34.231Z,17.10
2018-04-18T18:01:02.611Z,19.20
2018-04-18T18:03:31.099Z,19.05
2018-04-18T18:05:59.529Z,20.75
2018-04-18T18:08:27.949Z,32.78
2018-04-18T18:10:56.426Z,28.27
2018-04-18T18:13:24.867Z,24.35
2018-04-18T18:15:53.375Z,30.98
2018-04-18T18:18:22.706Z,25.02
2018-04-18T18:20:51.147Z,22.13
2018-04-18T18:23:20.278Z,24.50
2018-04-18T18:25:48.670Z,22.85
2018-04-18T18:28:17.052Z,23.17
2018-04-18T18:30:45.526Z,23.95
2018-04-18T18:33:13.968Z,24.12
2018-04-18T18:35:43.140Z,23.87
2018-04-18T18:38:11.567Z,22.55
2018-04-18T18:40:40.071Z,22.75
2018-04-18T18:43:08.741Z,22.87
2018-04-18T18:45:37.172Z,22.13
2018-04-18T18:48:05.697Z,22.73
2018-04-18T18:50:34.106Z,23.45
2018-04-18T18:53:02.715Z,23.60
2018-04-18T18:55:31.289Z,27.62
2018-04-18T18:57:59.678Z,31.70
2018-04-18T19:00:28.095Z,33.67
2018-04-18T19:02:56.615Z,28.17
2018-04-18T19:05:25.032Z,24.35
2018-04-18T19:07:53.489Z,24.48
2018-04-18T19:10:22.112Z,24.73
2018-04-18T19:12:50.591Z,25.52
2018-04-18T19:15:19.789Z,25.15
2018-04-18T19:17:49.094Z,26.40
2018-04-18T19:20:17.607Z,27.80
2018-04-18T19:22:46.128Z,24.63
2018-04-18T19:25:14.500Z,26.43
2018-04-18T19:27:43.006Z,25.17
2018-04-18T19:30:11.375Z,33.08
2018-04-18T19:32:39.769Z,41.00
2018-04-18T19:35:08.191Z,30.30
2018-04-18T19:37:36.854Z,28.17
2018-04-18T19:40:05.260Z,27.70
2018-04-18T19:42:33.619Z,28.57
2018-04-18T19:45:03.590Z,31.00
2018-04-18T19:47:31.937Z,33.57
2018-04-18T19:50:00.344Z,29.73
2018-04-18T19:52:28.716Z,25.37
2018-04-18T19:54:57.185Z,27.67
2018-04-18T19:57:25.567Z,25.27
2018-04-18T19:59:54.469Z,25.90
2018-04-18T20:02:22.842Z,23.73
2018-04-18T20:04:51.202Z,26.90
2018-04-18T20:07:19.568Z,27.03
2018-04-18T20:09:47.997Z,25.33
2018-04-18T20:12:16.456Z,87.70
2018-04-18T20:14:44.852Z,28.77
2018-04-18T20:17:13.271Z,26.62
2018-04-18T20:19:42.392Z,25.37
2018-04-18T20:22:11.804Z,26.90
2018-04-18T20:24:40.167Z,25.37
2018-04-18T20:27:08.545Z,26.13
2018-04-18T20:29:37.014Z,25.27
2018-04-18T20:32:05.370Z,24.50
2018-04-18T20:34:33.835Z,25.67
2018-04-18T20:37:02.192Z,37.53
2018-04-18T20:39:30.565Z,39.70
2018-04-18T20:41:58.928Z,29.80
2018-04-18T20:44:27.336Z,24.90
2018-04-18T20:46:55.679Z,27.17
2018-04-18T20:49:24.087Z,29.07
2018-04-18T20:51:52.560Z,32.73
2018-04-18T20:54:20.958Z,29.43
2018-04-18T20:56:49.503Z,29.87
2018-04-18T20:59:18.636Z,26.50
2018-04-18T21:01:47.004Z,26.70
2018-04-18T21:04:15.596Z,26.80
2018-04-18T21:06:43.939Z,26.43
2018-04-18T21:09:12.285Z,27.17
2018-04-18T21:11:40.652Z,25.07
2018-04-18T21:14:09.116Z,25.87
2018-04-18T21:16:37.482Z,25.77
2018-04-18T21:19:05.851Z,26.27
2018-04-18T21:21:34.253Z,26.43
2018-04-18T21:24:02.599Z,26.10
2018-04-18T21:26:30.995Z,27.07
2018-04-18T21:28:59.348Z,26.33
2018-04-18T21:31:27.760Z,25.53
2018-04-18T21:33:56.729Z,26.10
2018-04-18T21:36:25.147Z,25.80
2018-04-18T21:38:53.494Z,26.40
2018-04-18T21:41:21.884Z,27.07
2018-04-18T21:43:50.255Z,27.23
2018-04-18T21:46:18.644Z,28.30
2018-04-18T21:48:47.092Z,29.90
2018-04-18T21:51:17.214Z,26.97
2018-04-18T21:53:46.458Z,26.60
2018-04-18T21:56:14.839Z,27.30
2018-04-18T21:58:43.216Z,27.80
2018-04-18T22:01:11.664Z,26.97
2018-04-18T22:03:40.032Z,26.97
2018-04-18T22:06:09.260Z,27.10
2018-04-18T22:08:37.657Z,37.17
2018-04-18T22:11:06.062Z,67.63
2018-04-18T22:13:34.729Z,32.97
2018-04-18T22:16:03.235Z,26.47
2018-04-18T22:18:31.607Z,27.13
2018-04-18T22:21:00.151Z,27.27
2018-04-18T22:23:28.653Z,26.53
2018-04-18T22:25:57.859Z,25.90
2018-04-18T22:28:26.236Z,27.83
2018-04-18T22:30:54.912Z,26.47
2018-04-18T22:33:23.576Z,26.70
2018-04-18T22:35:52.723Z,26.93
2018-04-18T22:38:21.179Z,28.07
2018-04-18T22:40:49.708Z,25.63
2018-04-18T22:43:19.182Z,28.60
2018-04-18T22:45:47.616Z,27.90
2018-04-18T22:48:15.972Z,28.77
2018-04-18T22:50:44.315Z,28.80
2018-04-18T22:53:12.996Z,27.63
2018-04-18T22:55:41.335Z,26.43
2018-04-18T22:58:09.702Z,27.40
2018-04-18T23:00:38.851Z,26.27
2018-04-18T23:03:07.248Z,26.47
2018-04-18T23:05:36.620Z,26.40
2018-04-18T23:08:05.546Z,27.70
2018-04-18T23:10:33.898Z,27.53
2018-04-18T23:13:02.255Z,26.73
2018-04-18T23:15:30.830Z,27.47
2018-04-18T23:18:00.154Z,27.73
2018-04-18T23:20:28.751Z,26.23
2018-04-18T23:22:57.103Z,27.10
2018-04-18T23:25:26.982Z,27.43
2018-04-18T23:27:55.389Z,27.90
2018-04-18T23:30:23.789Z,27.93
2018-04-18T23:32:52.149Z,28.97
2018-04-18T23:35:20.534Z,28.37
2018-04-18T23:37:48.869Z,26.57
2018-04-18T23:40:17.227Z,28.73
2018-04-18T23:42:45.778Z,27.67
2018-04-18T23:45:14.180Z,27.73
2018-04-18T23:47:42.535Z,28.90
2018-04-18T23:50:10.883Z,27.63
2018-04-18T23:52:40.053Z,27.90
2018-04-18T23:55:08.393Z,28.10
2018-04-18T23:57:36.762Z,29.57
